»·PEaware :: AAL3096 KSLC-KLAX

AAL3096 :: KSLC-KLAX

FLIGHT INFORMATION

Flight Status: Arrived
Operator:
American Airlines
More flights by this operator :: More flights under this callsign
Pilot: Anonymous 3069 (3069)
Aircraft: BOEING 767-300
(B763)
More flights by this aircraft type
Origin: KSLC Salt Lake City Intl
United States
Destination: KLAX Los Angeles Intl
United States
More flights between these airports :: More routes between these airports
Route: +EDETH5 BERYL LAKRR Q88 HAKMN ANJLL2
File this flight plan on PilotEdge
Remarks:
Altitude:
(Current/Filed)
36,000ft
Speed:
(Current/Filed)
464kts
Departed: 12-Oct-17 10:48 AM
Arrived: 12-Oct-17 12:10 PM
Distance/Time
Traveled:
512nm/1:22
Distance/Time
To Go:
Arrived

Flight Plot

Page will automatically refresh every two minutes.

Flight plan parsing failed; only flown route is shown


Map Options




Map Legend


Flown Route
Filed Route
Departure Airport
Arrival Airport
Navaid (VOR, NDB)
Fix

Horizontal Profiles

Position Reports

Time Latitude Longitude Heading Altitude Ground
Speed
12-Oct-17 10:20 40.784849 -111.978979 0 4238ft 0kts
12-Oct-17 10:21 40.784849 -111.978979 0 4238ft 0kts
12-Oct-17 10:22 40.784849 -111.978979 0 4238ft 0kts
12-Oct-17 10:23 40.784849 -111.978979 0 4238ft 0kts
12-Oct-17 10:24 40.784849 -111.978979 0 4238ft 0kts
12-Oct-17 10:25 40.784849 -111.978979 0 4238ft 0kts
12-Oct-17 10:26 40.784849 -111.978979 0 4238ft 0kts
12-Oct-17 10:27 40.784849 -111.978979 0 4238ft 0kts
12-Oct-17 10:28 40.784849 -111.978979 0 4238ft 0kts
12-Oct-17 10:29 40.784849 -111.978979 0 4238ft 0kts
12-Oct-17 10:30 40.784849 -111.978979 0 4238ft 0kts
12-Oct-17 10:31 40.784849 -111.978979 0 4238ft 0kts
12-Oct-17 10:31 40.784849 -111.978979 0 4238ft 0kts
12-Oct-17 10:33 40.784849 -111.978979 0 4238ft 0kts
12-Oct-17 10:34 40.784849 -111.978979 0 4238ft 0kts
12-Oct-17 10:35 40.784849 -111.978979 0 4238ft 0kts
12-Oct-17 10:35 40.784849 -111.978979 0 4238ft 0kts
12-Oct-17 10:37 40.784849 -111.978979 0 4238ft 0kts
12-Oct-17 10:37 40.784849 -111.978979 0 4238ft 0kts
12-Oct-17 10:38 40.784849 -111.978979 0 4238ft 0kts
12-Oct-17 10:39 40.784733 -111.978979 359 4238ft 4kts
12-Oct-17 10:41 40.784080 -111.978754 299 4238ft 2kts
12-Oct-17 10:41 40.783959 -111.978140 290 4238ft 1kts
12-Oct-17 10:43 40.783411 -111.977938 354 4238ft 0kts
12-Oct-17 10:43 40.784043 -111.977863 53 4238ft 3kts
12-Oct-17 10:44 40.784098 -111.977213 84 4238ft 0kts
12-Oct-17 10:45 40.784098 -111.977213 84 4238ft 0kts
12-Oct-17 10:46 40.784098 -111.977213 84 4238ft 0kts
12-Oct-17 10:47 40.784104 -111.977125 84 4238ft 1kts
12-Oct-17 10:48 40.783218 -111.976295 175 4238ft 12kts
12-Oct-17 10:49 40.778016 -111.975178 176 4238ft 21kts
12-Oct-17 10:50 40.774544 -111.973785 41 4238ft 6kts
12-Oct-17 10:51 40.776541 -111.973355 355 4238ft 35kts
12-Oct-17 10:52 40.808509 -111.978541 345 4834ft 150kts
12-Oct-17 10:53 40.822367 -112.029398 275 5881ft 193kts
12-Oct-17 10:54 40.827733 -112.116771 261 7451ft 263kts
12-Oct-17 10:55 40.809615 -112.215648 247 10234ft 298kts
12-Oct-17 10:56 40.730275 -112.279417 191 11575ft 382kts
12-Oct-17 10:57 40.624308 -112.302016 186 15539ft 397kts
12-Oct-17 10:58 40.513521 -112.322409 189 18940ft 414kts
12-Oct-17 10:59 40.397080 -112.346759 188 21928ft 434kts
12-Oct-17 11:00 40.282086 -112.397954 208 24547ft 451kts
12-Oct-17 11:01 40.170094 -112.476390 208 26868ft 467kts
12-Oct-17 11:02 40.053979 -112.558103 208 29052ft 482kts
12-Oct-17 11:03 39.934895 -112.641618 208 31172ft 491kts
12-Oct-17 11:04 39.817745 -112.723446 208 33588ft 484kts
12-Oct-17 11:05 39.699871 -112.805195 205 35577ft 480kts
12-Oct-17 11:06 39.572895 -112.854322 194 35995ft 477kts
12-Oct-17 11:07 39.444870 -112.896747 194 36001ft 477kts
12-Oct-17 11:08 39.316573 -112.938870 193 36000ft 477kts
12-Oct-17 11:09 39.188068 -112.980832 194 36003ft 477kts
12-Oct-17 11:10 39.059937 -113.021777 193 35999ft 477kts
12-Oct-17 11:11 38.931766 -113.062592 193 36001ft 477kts
12-Oct-17 11:12 38.805541 -113.102640 193 35998ft 477kts
12-Oct-17 11:13 38.676712 -113.143356 193 35997ft 477kts
12-Oct-17 11:14 38.548378 -113.183778 193 36000ft 477kts
12-Oct-17 11:15 38.420041 -113.224049 193 36001ft 477kts
12-Oct-17 11:16 38.291502 -113.264234 193 36003ft 477kts
12-Oct-17 11:17 38.162962 -113.304317 193 36000ft 476kts
12-Oct-17 11:18 38.034732 -113.344122 194 36001ft 476kts
12-Oct-17 11:19 37.906189 -113.384410 197 36002ft 476kts
12-Oct-17 11:20 37.784763 -113.444449 202 36001ft 477kts
12-Oct-17 11:21 37.661880 -113.506602 201 35999ft 477kts
12-Oct-17 11:22 37.539104 -113.568553 202 36002ft 478kts
12-Oct-17 11:23 37.416192 -113.630366 202 35998ft 477kts
12-Oct-17 11:24 37.294826 -113.691185 201 35999ft 477kts
12-Oct-17 11:25 37.171921 -113.752551 201 36002ft 477kts
12-Oct-17 11:26 37.049091 -113.813681 201 35998ft 476kts
12-Oct-17 11:27 36.925769 -113.874826 201 36003ft 477kts
12-Oct-17 11:28 36.804744 -113.934634 202 35999ft 477kts
12-Oct-17 11:29 36.681625 -113.995273 201 36000ft 477kts
12-Oct-17 11:30 36.558827 -114.055536 201 36002ft 476kts
12-Oct-17 11:31 36.435543 -114.115833 201 36003ft 476kts
12-Oct-17 11:32 36.312535 -114.175786 201 36004ft 477kts
12-Oct-17 11:33 36.189385 -114.235611 201 36002ft 476kts
12-Oct-17 11:34 36.072200 -114.309630 222 36008ft 477kts
12-Oct-17 11:35 35.982489 -114.429091 228 36002ft 476kts
12-Oct-17 11:36 35.895772 -114.548546 229 36000ft 476kts
12-Oct-17 11:37 35.810181 -114.666295 228 36001ft 477kts
12-Oct-17 11:38 35.721758 -114.787564 228 36000ft 475kts
12-Oct-17 11:39 35.633989 -114.907573 228 35999ft 477kts
12-Oct-17 11:40 35.546718 -115.026813 228 35999ft 477kts
12-Oct-17 11:41 35.458775 -115.146832 228 35999ft 476kts
12-Oct-17 11:42 35.374098 -115.262271 228 36003ft 476kts
12-Oct-17 11:43 35.286225 -115.381945 228 36000ft 477kts
12-Oct-17 11:45 35.201002 -115.497887 229 35999ft 476kts
12-Oct-17 11:46 35.112330 -115.617755 225 35998ft 476kts
12-Oct-17 11:47 35.021895 -115.730649 226 36001ft 477kts
12-Oct-17 11:48 34.929582 -115.845722 225 36001ft 476kts
12-Oct-17 11:49 34.840689 -115.956052 225 35997ft 475kts
12-Oct-17 11:50 34.751250 -116.066675 225 35273ft 453kts
12-Oct-17 11:51 34.662223 -116.176446 225 33702ft 460kts
12-Oct-17 11:52 34.572388 -116.286831 225 31255ft 465kts
12-Oct-17 11:53 34.480665 -116.399169 225 28529ft 473kts
12-Oct-17 11:54 34.400700 -116.518536 244 27157ft 445kts
12-Oct-17 11:55 34.345597 -116.650324 243 25321ft 435kts
12-Oct-17 11:56 34.295517 -116.774038 245 24404ft 407kts
12-Oct-17 11:57 34.246555 -116.895471 244 22833ft 398kts
12-Oct-17 11:58 34.202559 -117.015426 252 21313ft 387kts
12-Oct-17 11:59 34.169411 -117.137448 252 19785ft 379kts
12-Oct-17 12:00 34.136577 -117.257032 252 18337ft 371kts
12-Oct-17 12:01 34.104504 -117.373460 253 16965ft 362kts
12-Oct-17 12:02 34.075680 -117.488648 253 15560ft 355kts
12-Oct-17 12:03 34.039548 -117.595224 248 14589ft 339kts
12-Oct-17 12:04 34.004758 -117.695020 247 14015ft 332kts
12-Oct-17 12:05 33.991187 -117.794536 273 12282ft 297kts
12-Oct-17 12:06 33.987163 -117.883557 267 8073ft 282kts
12-Oct-17 12:07 33.982182 -117.970640 267 7810ft 245kts
12-Oct-17 12:08 33.976491 -118.054322 253 5423ft 235kts
12-Oct-17 12:09 33.963454 -118.126279 265 4360ft 218kts
12-Oct-17 12:10 33.956414 -118.197256 265 3303ft 208kts
12-Oct-17 12:11 33.950453 -118.255564 265 2231ft 161kts
12-Oct-17 12:12 33.944800 -118.307761 264 1345ft 156kts
12-Oct-17 12:13 33.939782 -118.359666 264 545ft 156kts
12-Oct-17 12:14 33.934957 -118.406164 263 136ft 82kts
12-Oct-17 12:15 33.935499 -118.412540 354 136ft 0kts
12-Oct-17 12:16 33.936546 -118.412676 352 136ft 8kts
12-Oct-17 12:17 33.938553 -118.410297 83 136ft 16kts
12-Oct-17 12:18 33.939701 -118.407804 64 136ft 5kts
12-Oct-17 12:19 33.939774 -118.407295 80 136ft 0kts
12-Oct-17 12:20 33.939774 -118.407295 80 136ft 0kts

Navigation Log

Ident Type
Flight plan parsing failed, navigation log unavailable